createdAt,value
2023-01-30T00:00:54.205Z,55.17
2023-01-30T00:03:21.682Z,56.20
2023-01-30T00:05:49.184Z,53.40
2023-01-30T00:08:16.738Z,55.28
2023-01-30T00:10:44.638Z,51.47
2023-01-30T00:13:12.107Z,54.70
2023-01-30T00:15:39.503Z,52.47
2023-01-30T00:18:06.813Z,52.83
2023-01-30T00:20:34.274Z,56.65
2023-01-30T00:23:01.762Z,54.42
2023-01-30T00:25:29.398Z,58.00
2023-01-30T00:27:59.179Z,55.58
2023-01-30T00:30:26.557Z,50.20
2023-01-30T00:32:55.563Z,57.15
2023-01-30T00:35:28.589Z,56.55
2023-01-30T00:37:57.157Z,56.17
2023-01-30T00:40:25.442Z,55.78
2023-01-30T00:43:13.285Z,60.30
2023-01-30T00:46:00.431Z,55.85
2023-01-30T00:48:27.895Z,57.35
2023-01-30T00:50:55.224Z,57.72
2023-01-30T00:53:22.552Z,57.83
2023-01-30T00:55:53.248Z,54.75
2023-01-30T00:58:21.357Z,57.90
2023-01-30T01:00:49.584Z,62.22
2023-01-30T01:03:17.053Z,59.58
2023-01-30T01:05:44.502Z,56.55
2023-01-30T01:08:14.879Z,56.70
2023-01-30T01:10:42.791Z,58.13
2023-01-30T01:13:10.709Z,54.65
2023-01-30T01:15:38.238Z,56.88
2023-01-30T01:18:06.207Z,56.55
2023-01-30T01:20:33.757Z,56.33
2023-01-30T01:23:01.049Z,57.03
2023-01-30T01:25:28.353Z,58.47
2023-01-30T01:27:55.867Z,58.28
2023-01-30T01:30:23.614Z,65.00
2023-01-30T01:32:50.968Z,59.28
2023-01-30T01:35:20.065Z,53.95
2023-01-30T01:37:47.541Z,58.17
2023-01-30T01:40:39.438Z,58.35
2023-01-30T01:43:24.305Z,59.97
2023-01-30T01:45:53.794Z,61.40
2023-01-30T01:48:26.678Z,60.55
2023-01-30T01:50:58.818Z,61.45
2023-01-30T01:53:29.074Z,57.08
2023-01-30T01:55:57.193Z,58.70
2023-01-30T01:58:43.032Z,57.22
2023-01-30T02:01:10.397Z,55.72
2023-01-30T02:03:40.482Z,56.70
2023-01-30T02:06:08.271Z,55.92
2023-01-30T02:08:44.570Z,57.75
2023-01-30T02:11:17.933Z,58.35
2023-01-30T02:13:46.384Z,59.30
2023-01-30T02:16:14.006Z,54.38
2023-01-30T02:18:42.153Z,57.00
2023-01-30T02:21:21.377Z,57.72
2023-01-30T02:23:57.040Z,54.33
2023-01-30T02:26:42.613Z,60.30
2023-01-30T02:29:34.740Z,56.35
2023-01-30T02:32:11.348Z,56.03
2023-01-30T02:34:52.897Z,56.92
2023-01-30T02:37:57.296Z,57.17
2023-01-30T02:40:42.133Z,58.92
2023-01-30T02:43:34.241Z,57.53
2023-01-30T02:46:25.156Z,60.95
2023-01-30T02:49:29.774Z,59.70
2023-01-30T02:51:57.104Z,56.75
2023-01-30T02:54:24.947Z,60.22
2023-01-30T02:56:54.393Z,56.33
2023-01-30T02:59:36.679Z,58.15
2023-01-30T03:02:17.540Z,56.20
2023-01-30T03:04:56.895Z,57.67
2023-01-30T03:07:46.933Z,55.20
2023-01-30T03:10:59.910Z,58.05
2023-01-30T03:13:54.226Z,53.33
2023-01-30T03:16:26.762Z,57.40
2023-01-30T03:18:55.232Z,60.97
2023-01-30T03:21:22.521Z,57.15
2023-01-30T03:23:52.842Z,59.08
2023-01-30T03:26:22.687Z,61.40
2023-01-30T03:28:51.112Z,77.80
2023-01-30T03:31:18.875Z,67.47
2023-01-30T03:33:46.327Z,65.53
2023-01-30T03:36:13.773Z,61.45
2023-01-30T03:38:41.235Z,63.45
2023-01-30T03:41:08.603Z,63.28
2023-01-30T03:43:36.007Z,60.13
2023-01-30T03:46:05.874Z,65.55
2023-01-30T03:48:33.292Z,58.92
2023-01-30T03:51:00.625Z,59.70
2023-01-30T03:53:27.937Z,60.80
2023-01-30T03:55:55.277Z,56.40
2023-01-30T03:58:27.515Z,60.72
2023-01-30T04:00:57.490Z,57.30
2023-01-30T04:03:26.157Z,56.90
2023-01-30T04:05:57.568Z,63.00
2023-01-30T04:08:24.899Z,59.17
2023-01-30T04:10:53.544Z,61.00
2023-01-30T04:13:21.243Z,57.50
2023-01-30T04:15:48.645Z,59.60
2023-01-30T04:18:42.117Z,58.10
2023-01-30T04:21:13.537Z,56.60
2023-01-30T04:23:41.357Z,57.33
2023-01-30T04:26:08.943Z,62.25
2023-01-30T04:28:38.849Z,59.00
2023-01-30T04:31:06.562Z,61.53
2023-01-30T04:33:43.208Z,60.15
2023-01-30T04:36:12.680Z,54.90
2023-01-30T04:38:41.107Z,56.00
2023-01-30T04:41:08.572Z,57.45
2023-01-30T04:43:39.839Z,58.75
2023-01-30T04:46:16.008Z,62.15
2023-01-30T04:48:43.634Z,52.90
2023-01-30T04:51:11.126Z,54.58
2023-01-30T04:53:38.987Z,60.83
2023-01-30T04:56:07.032Z,57.90
2023-01-30T04:58:34.415Z,63.60
2023-01-30T05:01:16.021Z,56.58
2023-01-30T05:03:44.152Z,52.78
2023-01-30T05:06:11.523Z,58.03
2023-01-30T05:08:38.893Z,56.38
2023-01-30T05:11:07.004Z,54.00
2023-01-30T05:13:34.274Z,55.03
2023-01-30T05:16:01.603Z,59.60
2023-01-30T05:18:28.969Z,56.22
2023-01-30T05:21:02.718Z,56.03
2023-01-30T05:23:30.459Z,57.47
2023-01-30T05:25:57.840Z,56.17
2023-01-30T05:28:25.476Z,54.92
2023-01-30T05:30:52.873Z,61.33
2023-01-30T05:33:22.606Z,54.92
2023-01-30T05:35:50.075Z,53.58
2023-01-30T05:38:17.379Z,49.47
2023-01-30T05:40:44.672Z,48.92
2023-01-30T05:43:12.031Z,53.40
2023-01-30T05:45:39.474Z,50.03
2023-01-30T05:48:06.944Z,49.25
2023-01-30T05:50:34.257Z,46.10
2023-01-30T05:53:01.614Z,47.58
2023-01-30T05:55:28.990Z,49.53
2023-01-30T05:57:56.272Z,46.15
2023-01-30T06:00:23.616Z,49.45
2023-01-30T06:02:50.950Z,45.92
2023-01-30T06:05:18.601Z,44.50
2023-01-30T06:07:46.107Z,44.40
2023-01-30T06:10:13.537Z,44.28
2023-01-30T06:12:40.858Z,46.90
2023-01-30T06:15:08.938Z,46.95
2023-01-30T06:17:36.276Z,46.20
2023-01-30T06:20:03.981Z,49.40
2023-01-30T06:22:31.286Z,45.17
2023-01-30T06:24:58.548Z,45.28
2023-01-30T06:27:25.883Z,43.00
2023-01-30T06:29:53.170Z,43.50
2023-01-30T06:32:20.464Z,44.17
2023-01-30T06:34:47.867Z,44.38
2023-01-30T06:37:15.209Z,45.15
2023-01-30T06:39:42.534Z,50.97
2023-01-30T06:42:09.840Z,43.10
2023-01-30T06:44:37.171Z,47.72
2023-01-30T06:47:04.532Z,48.33
2023-01-30T06:49:31.875Z,42.63
2023-01-30T06:51:59.181Z,41.40
2023-01-30T06:54:26.534Z,43.22
2023-01-30T06:56:54.143Z,46.20
2023-01-30T06:59:21.528Z,44.05
2023-01-30T07:01:48.973Z,48.42
2023-01-30T07:04:16.487Z,40.90
2023-01-30T07:06:43.954Z,47.38
2023-01-30T07:09:11.226Z,41.55
2023-01-30T07:11:38.590Z,40.30
2023-01-30T07:14:07.079Z,40.10
2023-01-30T07:16:34.673Z,41.13
2023-01-30T07:19:02.053Z,43.58
2023-01-30T07:21:29.488Z,41.38
2023-01-30T07:23:57.719Z,43.92
2023-01-30T07:26:25.395Z,37.78
2023-01-30T07:28:52.952Z,41.00
2023-01-30T07:31:20.343Z,37.33
2023-01-30T07:33:47.905Z,41.38
2023-01-30T07:36:15.179Z,45.30
2023-01-30T07:38:42.563Z,42.15
2023-01-30T07:41:09.861Z,38.65
2023-01-30T07:43:37.267Z,38.58
2023-01-30T07:46:04.825Z,38.15
2023-01-30T07:48:32.129Z,37.90
2023-01-30T07:50:59.488Z,35.28
2023-01-30T07:53:26.863Z,38.95
2023-01-30T07:55:54.143Z,36.67
2023-01-30T07:58:21.445Z,34.53
2023-01-30T08:00:48.843Z,32.22
2023-01-30T08:03:16.730Z,39.45
2023-01-30T08:05:47.024Z,32.50
2023-01-30T08:08:14.739Z,38.05
2023-01-30T08:10:42.424Z,35.92
2023-01-30T08:13:09.795Z,33.78
2023-01-30T08:15:37.120Z,34.80
2023-01-30T08:18:04.534Z,41.67
2023-01-30T08:20:31.909Z,37.45
2023-01-30T08:22:59.609Z,37.53
2023-01-30T08:25:27.247Z,33.05
2023-01-30T08:27:54.729Z,35.08
2023-01-30T08:30:22.571Z,34.80
2023-01-30T08:32:50.057Z,34.70
2023-01-30T08:35:17.561Z,33.53
2023-01-30T08:37:45.004Z,33.38
2023-01-30T08:40:12.872Z,33.92
2023-01-30T08:42:40.210Z,40.50
2023-01-30T08:45:08.056Z,35.38
2023-01-30T08:47:35.696Z,35.33
2023-01-30T08:50:03.908Z,37.65
2023-01-30T08:52:32.975Z,36.63
2023-01-30T08:55:00.350Z,31.17
2023-01-30T08:57:27.655Z,34.42
2023-01-30T08:59:55.046Z,31.75
2023-01-30T09:02:22.559Z,34.95
2023-01-30T09:04:49.893Z,34.63
2023-01-30T09:07:17.423Z,33.15
2023-01-30T09:09:44.756Z,36.53
2023-01-30T09:12:12.105Z,41.10
2023-01-30T09:14:39.589Z,35.65
2023-01-30T09:17:07.081Z,33.80
2023-01-30T09:19:37.278Z,30.40
2023-01-30T09:22:04.870Z,32.67
2023-01-30T09:24:32.403Z,28.27
2023-01-30T09:27:00.045Z,29.55
2023-01-30T09:29:27.595Z,35.55
2023-01-30T09:31:56.575Z,29.95
2023-01-30T09:34:27.622Z,36.70
2023-01-30T09:36:55.978Z,35.63
2023-01-30T09:39:23.372Z,32.03
2023-01-30T09:42:05.747Z,34.45
2023-01-30T09:45:07.924Z,30.23
2023-01-30T09:48:04.094Z,33.42
2023-01-30T09:50:52.794Z,36.08
2023-01-30T09:54:01.007Z,31.38
2023-01-30T09:56:28.514Z,33.55
2023-01-30T09:58:59.880Z,31.50
2023-01-30T10:01:33.005Z,30.67
2023-01-30T10:04:21.524Z,29.67
2023-01-30T10:07:10.001Z,27.60
2023-01-30T10:10:19.325Z,33.90
2023-01-30T10:13:05.365Z,32.58
2023-01-30T10:15:47.740Z,26.50
2023-01-30T10:18:27.142Z,28.27
2023-01-30T10:21:31.897Z,25.38
2023-01-30T10:24:08.632Z,26.33
2023-01-30T10:26:36.024Z,28.52
2023-01-30T10:29:21.443Z,23.13
2023-01-30T10:32:05.166Z,23.58
2023-01-30T10:34:34.467Z,24.33
2023-01-30T10:37:10.716Z,23.23
2023-01-30T10:39:55.218Z,20.98
2023-01-30T10:42:51.005Z,36.30
2023-01-30T10:45:21.201Z,20.13
2023-01-30T10:48:31.364Z,19.48
2023-01-30T10:51:39.740Z,22.85
2023-01-30T10:54:21.854Z,18.77
2023-01-30T10:57:27.372Z,25.55
2023-01-30T11:00:25.567Z,26.33
2023-01-30T11:03:03.640Z,19.02
2023-01-30T11:05:48.403Z,18.15
2023-01-30T11:08:23.072Z,18.65
2023-01-30T11:10:50.845Z,27.38
2023-01-30T11:13:20.208Z,22.88
2023-01-30T11:15:50.005Z,22.33
2023-01-30T11:19:17.819Z,20.30
2023-01-30T11:21:08.152Z,21.67
2023-01-30T11:23:40.536Z,30.08
2023-01-30T11:26:11.552Z,19.33
2023-01-30T11:28:43.060Z,23.05
2023-01-30T11:31:31.517Z,24.88
2023-01-30T11:34:05.546Z,19.08
2023-01-30T11:36:34.216Z,19.67
2023-01-30T11:39:25.861Z,22.02
2023-01-30T11:41:56.574Z,21.70
2023-01-30T11:44:33.754Z,15.88
2023-01-30T11:47:09.254Z,17.80
2023-01-30T11:49:48.261Z,22.50
2023-01-30T11:52:29.585Z,16.23
2023-01-30T11:55:02.054Z,20.75
2023-01-30T11:57:29.367Z,16.83
2023-01-30T12:00:00.195Z,20.40
2023-01-30T12:02:35.120Z,22.10
2023-01-30T12:05:07.010Z,23.38
2023-01-30T12:07:35.700Z,18.90
2023-01-30T12:10:26.067Z,15.95
2023-01-30T12:12:57.108Z,15.20
2023-01-30T12:15:29.020Z,20.25
2023-01-30T12:18:05.653Z,20.95
2023-01-30T12:20:40.114Z,17.75
2023-01-30T12:23:10.544Z,18.55
2023-01-30T12:26:03.007Z,23.13
2023-01-30T12:28:54.867Z,14.90
2023-01-30T12:31:24.915Z,16.45
2023-01-30T12:33:54.652Z,15.70
2023-01-30T12:36:33.979Z,16.88
2023-01-30T12:39:14.997Z,22.83
2023-01-30T12:42:01.197Z,26.10
2023-01-30T12:44:50.825Z,17.60
2023-01-30T12:47:31.720Z,22.40
2023-01-30T12:50:10.927Z,21.85
2023-01-30T12:53:03.192Z,18.02
2023-01-30T12:56:00.404Z,22.63
2023-01-30T12:58:58.942Z,15.52
2023-01-30T13:01:33.594Z,16.27
2023-01-30T13:04:32.073Z,17.77
2023-01-30T13:07:20.171Z,14.40
2023-01-30T13:10:16.805Z,20.40
2023-01-30T13:13:22.507Z,13.75
2023-01-30T13:16:11.057Z,15.02
2023-01-30T13:18:50.399Z,12.80
2023-01-30T13:21:40.135Z,14.82
2023-01-30T13:24:29.492Z,18.65
2023-01-30T13:26:58.220Z,14.95
2023-01-30T13:29:38.619Z,23.73
2023-01-30T13:32:11.573Z,14.50
2023-01-30T13:34:40.703Z,15.52
2023-01-30T13:37:18.496Z,18.55
2023-01-30T13:40:27.842Z,16.88
2023-01-30T13:43:10.197Z,16.15
2023-01-30T13:45:40.347Z,10.75
2023-01-30T13:48:29.562Z,15.32
2023-01-30T13:51:15.339Z,13.07
2023-01-30T13:53:46.108Z,12.07
2023-01-30T13:56:40.250Z,12.85
2023-01-30T13:59:29.381Z,12.45
2023-01-30T14:02:00.046Z,11.13
2023-01-30T14:04:45.274Z,13.48
2023-01-30T14:07:12.614Z,15.68
2023-01-30T14:10:05.964Z,12.60
2023-01-30T14:12:37.685Z,19.05
2023-01-30T14:15:07.320Z,12.35
2023-01-30T14:17:34.761Z,12.68
2023-01-30T14:20:06.802Z,12.15
2023-01-30T14:22:39.610Z,11.75
2023-01-30T14:25:25.396Z,9.98
2023-01-30T14:27:56.005Z,11.82
2023-01-30T14:30:59.156Z,10.85
2023-01-30T14:33:26.658Z,15.65
2023-01-30T14:36:02.965Z,18.48
2023-01-30T14:38:37.396Z,13.73
2023-01-30T14:41:04.755Z,12.45
2023-01-30T14:43:36.278Z,11.18
2023-01-30T14:46:19.676Z,13.57
2023-01-30T14:48:54.151Z,15.25
2023-01-30T14:51:24.364Z,14.57
2023-01-30T14:54:13.825Z,14.38
2023-01-30T14:56:44.246Z,15.00
2023-01-30T14:59:17.864Z,16.13
2023-01-30T15:02:13.136Z,17.67
2023-01-30T15:05:02.192Z,15.30
2023-01-30T15:07:53.609Z,15.23
2023-01-30T15:10:34.158Z,14.38
2023-01-30T15:13:17.755Z,12.65
2023-01-30T15:16:22.718Z,13.87
2023-01-30T15:19:03.765Z,16.98
2023-01-30T15:21:48.260Z,15.32
2023-01-30T15:27:24.401Z,16.63
2023-01-30T15:30:01.078Z,17.55
2023-01-30T15:32:29.414Z,15.27
2023-01-30T15:35:00.837Z,17.33
2023-01-30T15:37:35.899Z,15.95
2023-01-30T15:40:25.690Z,19.75
2023-01-30T15:43:05.063Z,16.58
2023-01-30T15:45:50.857Z,18.85
2023-01-30T15:48:41.872Z,16.30
2023-01-30T15:51:12.128Z,16.13
2023-01-30T15:53:44.259Z,17.08
2023-01-30T15:56:16.693Z,16.30
2023-01-30T15:58:44.237Z,17.67
2023-01-30T16:01:15.881Z,16.55
2023-01-30T16:03:43.208Z,16.40
2023-01-30T16:06:29.901Z,15.82
2023-01-30T16:09:02.534Z,18.00
2023-01-30T16:11:42.988Z,16.55
2023-01-30T16:14:21.041Z,20.15
2023-01-30T16:16:59.017Z,15.85
2023-01-30T16:19:31.632Z,17.08
2023-01-30T16:22:01.009Z,17.23
2023-01-30T16:24:29.818Z,18.40
2023-01-30T16:27:01.125Z,15.30
2023-01-30T16:29:30.384Z,15.63
2023-01-30T16:31:57.947Z,16.80
2023-01-30T16:34:32.201Z,17.63
2023-01-30T16:39:34.020Z,16.58
2023-01-30T16:42:02.102Z,15.57
2023-01-30T16:44:30.469Z,16.48
2023-01-30T16:47:06.816Z,18.17
2023-01-30T16:49:37.064Z,17.65
2023-01-30T16:52:05.524Z,17.10
2023-01-30T16:54:33.050Z,17.27
2023-01-30T16:57:00.990Z,16.90
2023-01-30T16:59:32.997Z,18.67
2023-01-30T17:02:02.167Z,16.85
2023-01-30T17:04:30.889Z,17.58
2023-01-30T17:07:04.110Z,18.75
2023-01-30T17:09:46.157Z,19.25
2023-01-30T17:12:25.838Z,18.15
2023-01-30T17:15:16.372Z,17.02
2023-01-30T17:17:43.749Z,18.30
2023-01-30T17:20:12.109Z,19.25
2023-01-30T17:22:44.256Z,20.92
2023-01-30T17:25:37.878Z,21.25
2023-01-30T17:28:06.963Z,23.67
2023-01-30T17:30:34.760Z,20.13
2023-01-30T17:33:02.598Z,19.75
2023-01-30T17:35:29.977Z,21.63
2023-01-30T17:38:05.201Z,17.75
2023-01-30T17:40:35.719Z,18.20
2023-01-30T17:43:03.179Z,19.05
2023-01-30T17:45:30.555Z,20.85
2023-01-30T17:47:58.263Z,17.92
2023-01-30T17:50:25.800Z,18.92
2023-01-30T17:52:53.213Z,17.20
2023-01-30T17:55:21.396Z,17.25
2023-01-30T17:57:49.116Z,17.08
2023-01-30T18:00:20.407Z,17.42
2023-01-30T18:02:48.142Z,21.98
2023-01-30T18:05:15.640Z,15.85
2023-01-30T18:07:43.062Z,18.20
2023-01-30T18:10:18.573Z,17.50
2023-01-30T18:12:46.894Z,19.25
2023-01-30T18:15:17.193Z,17.70
2023-01-30T18:17:48.637Z,20.50
2023-01-30T18:20:18.615Z,19.35
2023-01-30T18:22:46.413Z,21.05
2023-01-30T18:25:13.991Z,15.35
2023-01-30T18:27:44.427Z,16.98
2023-01-30T18:30:14.134Z,15.95
2023-01-30T18:32:52.651Z,16.85
2023-01-30T18:35:22.402Z,15.25
2023-01-30T18:37:50.201Z,15.07
2023-01-30T18:40:19.116Z,16.13
2023-01-30T18:42:46.888Z,14.63
2023-01-30T18:45:14.491Z,12.68
2023-01-30T18:47:41.792Z,16.48
2023-01-30T18:50:09.629Z,15.35
2023-01-30T18:52:37.167Z,13.93
2023-01-30T18:55:04.830Z,18.73
2023-01-30T18:57:32.141Z,15.68
2023-01-30T18:59:59.492Z,15.52
2023-01-30T19:02:26.934Z,14.25
2023-01-30T19:04:54.266Z,15.65
2023-01-30T19:07:21.648Z,13.73
2023-01-30T19:09:48.967Z,16.35
2023-01-30T19:12:35.082Z,16.25
2023-01-30T19:15:03.398Z,15.95
2023-01-30T19:17:30.975Z,15.60
2023-01-30T19:20:01.173Z,12.95
2023-01-30T19:22:28.566Z,13.82
2023-01-30T19:24:55.948Z,14.88
2023-01-30T19:27:23.552Z,13.15
2023-01-30T19:29:50.943Z,17.15
2023-01-30T19:32:18.297Z,18.08
2023-01-30T19:34:45.686Z,18.50
2023-01-30T19:37:13.041Z,15.45
2023-01-30T19:39:40.393Z,17.55
2023-01-30T19:42:07.778Z,16.05
2023-01-30T19:44:35.445Z,14.55
2023-01-30T19:47:02.743Z,15.00
2023-01-30T19:49:30.032Z,15.07
2023-01-30T19:52:01.967Z,17.25
2023-01-30T19:54:29.503Z,13.10
2023-01-30T19:56:56.922Z,12.13
2023-01-30T19:59:27.355Z,14.95
2023-01-30T20:01:54.761Z,16.83
2023-01-30T20:04:22.098Z,13.52
2023-01-30T20:06:49.830Z,14.77
2023-01-30T20:09:17.653Z,15.00
2023-01-30T20:11:45.390Z,14.05
2023-01-30T20:14:12.742Z,13.43
2023-01-30T20:16:40.273Z,16.20
2023-01-30T20:19:10.838Z,13.20
2023-01-30T20:21:38.247Z,13.20
2023-01-30T20:24:05.919Z,11.63
2023-01-30T20:26:35.182Z,11.57
2023-01-30T20:29:03.458Z,14.23
2023-01-30T20:31:31.087Z,11.30
2023-01-30T20:34:00.403Z,12.20
2023-01-30T20:36:27.940Z,11.45
2023-01-30T20:38:56.024Z,10.75
2023-01-30T20:41:25.023Z,12.10
2023-01-30T20:43:57.421Z,13.10
2023-01-30T20:46:29.235Z,14.50
2023-01-30T20:48:57.617Z,12.82
2023-01-30T20:51:26.578Z,11.07
2023-01-30T20:53:55.467Z,11.13
2023-01-30T20:56:23.543Z,13.98
2023-01-30T20:58:51.059Z,12.85
2023-01-30T21:01:23.319Z,12.57
2023-01-30T21:03:52.327Z,11.60
2023-01-30T21:06:42.414Z,11.02
2023-01-30T21:09:17.043Z,13.77
2023-01-30T21:11:44.861Z,10.98
2023-01-30T21:14:12.234Z,9.70
2023-01-30T21:16:39.715Z,11.38
2023-01-30T21:19:08.224Z,11.07
2023-01-30T21:21:37.886Z,11.60
2023-01-30T21:24:12.367Z,9.63
2023-01-30T21:26:41.279Z,13.45
2023-01-30T21:29:08.966Z,12.05
2023-01-30T21:31:37.485Z,13.45
2023-01-30T21:34:05.124Z,11.85
2023-01-30T21:36:32.456Z,10.98
2023-01-30T21:39:18.274Z,12.80
2023-01-30T21:42:04.426Z,12.45
2023-01-30T21:44:33.186Z,10.48
2023-01-30T21:47:00.552Z,13.43
2023-01-30T21:49:28.133Z,11.23
2023-01-30T21:51:55.819Z,12.52
2023-01-30T21:54:23.219Z,11.75
2023-01-30T21:56:50.632Z,14.38
2023-01-30T21:59:18.120Z,12.02
2023-01-30T22:01:45.436Z,11.27
2023-01-30T22:04:14.038Z,14.05
2023-01-30T22:06:41.731Z,11.60
2023-01-30T22:09:09.182Z,13.88
2023-01-30T22:11:37.728Z,11.88
2023-01-30T22:14:05.171Z,11.40
2023-01-30T22:16:33.606Z,13.80
2023-01-30T22:19:02.837Z,19.70
2023-01-30T22:21:32.509Z,14.98
2023-01-30T22:24:00.770Z,13.20
2023-01-30T22:26:28.242Z,13.95
2023-01-30T22:28:56.563Z,15.90
2023-01-30T22:31:24.358Z,14.38
2023-01-30T22:33:53.807Z,15.55
2023-01-30T22:36:25.086Z,11.75
2023-01-30T22:38:52.492Z,17.80
2023-01-30T22:41:21.181Z,15.50
2023-01-30T22:43:50.313Z,12.35
2023-01-30T22:46:18.505Z,11.38
2023-01-30T22:48:45.926Z,13.18
2023-01-30T22:51:15.819Z,13.25
2023-01-30T22:53:44.712Z,12.88
2023-01-30T22:56:15.590Z,17.42
2023-01-30T22:58:43.267Z,12.80
2023-01-30T23:01:14.711Z,12.05
2023-01-30T23:03:43.161Z,13.30
2023-01-30T23:06:11.943Z,14.80
2023-01-30T23:08:40.569Z,19.60
2023-01-30T23:11:32.869Z,13.52
2023-01-30T23:14:06.398Z,13.13
2023-01-30T23:16:35.007Z,10.23
2023-01-30T23:19:04.593Z,12.38
2023-01-30T23:21:37.839Z,18.35
2023-01-30T23:24:10.444Z,12.98
2023-01-30T23:26:39.497Z,9.93
2023-01-30T23:29:08.375Z,11.23
2023-01-30T23:31:36.648Z,15.98
2023-01-30T23:34:05.378Z,14.20
2023-01-30T23:36:32.996Z,14.90
2023-01-30T23:39:00.615Z,9.07
2023-01-30T23:41:29.554Z,11.40
2023-01-30T23:43:57.240Z,12.57
2023-01-30T23:46:33.225Z,26.02
2023-01-30T23:49:05.452Z,13.27
2023-01-30T23:51:33.699Z,10.35
2023-01-30T23:54:01.249Z,14.90
2023-01-30T23:56:29.514Z,12.57
2023-01-30T23:58:57.112Z,11.13
